createdAt,value
2018-09-03T00:01:15.958Z,22.40
2018-09-03T00:03:44.804Z,22.40
2018-09-03T00:06:13.963Z,22.20
2018-09-03T00:08:42.847Z,22.00
2018-09-03T00:11:11.650Z,22.10
2018-09-03T00:13:40.545Z,22.20
2018-09-03T00:16:09.368Z,22.10
2018-09-03T00:18:38.198Z,22.20
2018-09-03T00:21:07.015Z,22.10
2018-09-03T00:23:35.894Z,22.10
2018-09-03T00:26:04.790Z,22.20
2018-09-03T00:28:33.658Z,22.20
2018-09-03T00:31:07.995Z,22.10
2018-09-03T00:33:42.192Z,21.90
2018-09-03T00:37:15.186Z,22.00
2018-09-03T00:39:49.442Z,21.90
2018-09-03T00:42:23.641Z,22.10
2018-09-03T00:44:57.815Z,22.10
2018-09-03T00:47:26.611Z,22.30
2018-09-03T00:49:55.463Z,22.20
2018-09-03T00:52:24.296Z,22.20
2018-09-03T00:54:53.140Z,22.20
2018-09-03T00:57:21.938Z,22.10
2018-09-03T00:59:50.842Z,22.10
2018-09-03T01:02:19.716Z,22.00
2018-09-03T01:04:48.528Z,22.00
2018-09-03T01:07:17.413Z,22.00
2018-09-03T01:09:46.289Z,21.90
2018-09-03T01:12:15.198Z,21.90
2018-09-03T01:14:44.060Z,22.00
2018-09-03T01:17:12.968Z,21.90
2018-09-03T01:19:41.804Z,22.00
2018-09-03T01:22:10.639Z,21.90
2018-09-03T01:24:39.465Z,22.10
2018-09-03T01:27:08.271Z,22.00
2018-09-03T01:29:37.188Z,22.00
2018-09-03T01:32:06.020Z,21.80
2018-09-03T01:34:34.877Z,21.80
2018-09-03T01:37:03.749Z,21.90
2018-09-03T01:39:32.599Z,22.00
2018-09-03T01:42:01.442Z,21.90
2018-09-03T01:44:30.247Z,21.90
2018-09-03T01:46:59.118Z,21.90
2018-09-03T01:49:27.959Z,22.00
2018-09-03T01:51:56.808Z,22.00
2018-09-03T01:54:25.660Z,21.90
2018-09-03T01:56:54.634Z,22.00
2018-09-03T01:59:23.445Z,22.10
2018-09-03T02:01:52.324Z,21.90
2018-09-03T02:04:21.203Z,21.90
2018-09-03T02:06:50.040Z,21.80
2018-09-03T02:09:18.895Z,21.80
2018-09-03T02:11:47.707Z,21.70
2018-09-03T02:14:16.535Z,21.80
2018-09-03T02:16:45.398Z,21.70
2018-09-03T02:19:14.307Z,21.70
2018-09-03T02:21:43.164Z,21.70
2018-09-03T02:24:12.012Z,21.50
2018-09-03T02:26:40.900Z,21.40
2018-09-03T02:29:09.726Z,21.60
2018-09-03T02:31:38.605Z,21.60
2018-09-03T02:34:07.444Z,21.80
2018-09-03T02:36:36.296Z,21.80
2018-09-03T02:39:07.029Z,21.70
2018-09-03T02:41:35.863Z,21.80
2018-09-03T02:44:04.735Z,21.60
2018-09-03T02:46:33.648Z,21.50
2018-09-03T02:49:02.474Z,21.50
2018-09-03T02:51:31.299Z,21.70
2018-09-03T02:54:00.164Z,21.70
2018-09-03T02:56:28.977Z,21.80
2018-09-03T02:58:57.840Z,21.70
2018-09-03T03:01:26.667Z,21.60
2018-09-03T03:03:55.537Z,21.70
2018-09-03T03:06:24.385Z,21.70
2018-09-03T03:08:53.236Z,21.70
2018-09-03T03:11:22.062Z,21.60
2018-09-03T03:13:50.879Z,21.50
2018-09-03T03:16:19.713Z,21.60
2018-09-03T03:18:48.583Z,21.50
2018-09-03T03:21:17.411Z,21.60
2018-09-03T03:23:46.260Z,21.50
2018-09-03T03:26:15.104Z,21.40
2018-09-03T03:28:44.010Z,21.50
2018-09-03T03:31:12.868Z,21.20
2018-09-03T03:33:41.728Z,21.60
2018-09-03T03:36:10.523Z,21.40
2018-09-03T03:38:39.433Z,21.20
2018-09-03T03:41:08.302Z,21.40
2018-09-03T03:43:37.102Z,21.40
2018-09-03T03:46:05.977Z,21.30
2018-09-03T03:48:34.874Z,21.10
2018-09-03T03:51:03.688Z,21.10
2018-09-03T03:53:32.534Z,20.90
2018-09-03T03:56:01.373Z,21.10
2018-09-03T03:58:30.286Z,21.20
2018-09-03T04:00:59.120Z,21.00
2018-09-03T04:03:27.992Z,20.70
2018-09-03T04:05:56.783Z,20.70
2018-09-03T04:08:25.612Z,20.60
2018-09-03T04:10:54.490Z,20.60
2018-09-03T04:13:23.323Z,20.80
2018-09-03T04:15:52.179Z,20.60
2018-09-03T04:18:21.024Z,20.70
2018-09-03T04:20:49.868Z,20.60
2018-09-03T04:23:18.999Z,20.60
2018-09-03T04:25:47.670Z,20.40
2018-09-03T04:28:16.520Z,20.40
2018-09-03T04:30:45.375Z,20.30
2018-09-03T04:33:14.220Z,20.30
2018-09-03T04:35:43.056Z,20.30
2018-09-03T04:38:11.927Z,20.20
2018-09-03T04:40:40.794Z,20.30
2018-09-03T04:43:09.648Z,20.20
2018-09-03T04:45:38.512Z,20.30
2018-09-03T04:48:07.451Z,20.40
2018-09-03T04:50:36.253Z,20.30
2018-09-03T04:53:05.228Z,20.50
2018-09-03T04:55:34.082Z,20.40
2018-09-03T04:58:02.933Z,20.50
2018-09-03T05:00:31.808Z,20.20
2018-09-03T05:03:00.676Z,20.30
2018-09-03T05:05:29.500Z,20.40
2018-09-03T05:07:58.298Z,20.40
2018-09-03T05:10:27.794Z,20.30
2018-09-03T05:12:56.915Z,20.60
2018-09-03T05:15:25.731Z,20.70
2018-09-03T05:17:54.564Z,20.60
2018-09-03T05:20:23.384Z,20.70
2018-09-03T05:22:52.221Z,20.70
2018-09-03T05:25:21.081Z,20.70
2018-09-03T05:27:49.920Z,20.50
2018-09-03T05:30:18.783Z,20.80
2018-09-03T05:32:47.631Z,20.70
2018-09-03T05:35:16.470Z,20.80
2018-09-03T05:37:45.246Z,20.70
2018-09-03T05:40:14.053Z,20.90
2018-09-03T05:42:42.909Z,20.90
2018-09-03T05:45:11.698Z,20.90
2018-09-03T05:47:40.527Z,21.00
2018-09-03T05:50:09.407Z,21.20
2018-09-03T05:52:38.293Z,21.30
2018-09-03T05:55:07.121Z,21.30
2018-09-03T05:57:35.937Z,21.30
2018-09-03T06:00:05.268Z,21.20
2018-09-03T06:02:34.119Z,21.30
2018-09-03T06:05:02.988Z,21.20
2018-09-03T06:07:31.840Z,21.30
2018-09-03T06:10:00.667Z,21.60
2018-09-03T06:12:29.557Z,21.80
2018-09-03T06:14:58.399Z,21.90
2018-09-03T06:17:27.277Z,21.80
2018-09-03T06:19:56.144Z,21.60
2018-09-03T06:22:24.943Z,22.00
2018-09-03T06:24:53.875Z,22.20
2018-09-03T06:27:22.733Z,22.20
2018-09-03T06:29:51.597Z,22.20
2018-09-03T06:32:20.431Z,22.00
2018-09-03T06:34:49.242Z,22.40
2018-09-03T06:37:18.111Z,22.30
2018-09-03T06:39:46.964Z,22.40
2018-09-03T06:42:15.806Z,22.40
2018-09-03T06:44:44.652Z,22.50
2018-09-03T06:47:13.687Z,22.60
2018-09-03T06:49:42.519Z,22.60
2018-09-03T06:52:11.400Z,22.90
2018-09-03T06:54:40.301Z,23.00
2018-09-03T06:57:09.168Z,22.90
2018-09-03T06:59:38.067Z,23.20
2018-09-03T07:02:07.934Z,23.40
2018-09-03T07:04:37.090Z,23.60
2018-09-03T07:07:06.702Z,23.60
2018-09-03T07:09:35.566Z,23.90
2018-09-03T07:12:04.646Z,24.00
2018-09-03T07:14:33.475Z,24.30
2018-09-03T07:17:02.363Z,24.30
2018-09-03T07:19:31.251Z,24.00
2018-09-03T07:22:00.161Z,24.00
2018-09-03T07:24:29.000Z,24.30
2018-09-03T07:26:57.806Z,24.30
2018-09-03T07:29:26.615Z,24.40
2018-09-03T07:31:55.476Z,24.20
2018-09-03T07:34:24.328Z,24.30
2018-09-03T07:36:53.252Z,24.40
2018-09-03T07:39:22.096Z,24.90
2018-09-03T07:41:50.931Z,25.10
2018-09-03T07:44:19.747Z,25.40
2018-09-03T07:46:48.629Z,25.60
2018-09-03T07:49:17.581Z,25.90
2018-09-03T07:51:46.493Z,26.20
2018-09-03T07:54:15.366Z,26.40
2018-09-03T07:56:44.232Z,26.60
2018-09-03T07:59:13.112Z,27.00
2018-09-03T08:01:42.020Z,27.40
2018-09-03T08:04:10.955Z,27.80
2018-09-03T08:06:39.782Z,28.10
2018-09-03T08:09:10.415Z,28.10
2018-09-03T08:11:39.378Z,28.20
2018-09-03T08:14:08.087Z,28.10
2018-09-03T08:16:36.878Z,28.00
2018-09-03T08:22:03.482Z,28.00
2018-09-03T08:24:32.336Z,28.00
2018-09-03T08:27:01.247Z,28.00
2018-09-03T08:29:30.114Z,28.10
2018-09-03T08:31:58.963Z,28.20
2018-09-03T08:34:27.762Z,28.30
2018-09-03T08:36:56.596Z,28.00
2018-09-03T08:39:25.407Z,28.40
2018-09-03T08:41:54.257Z,28.50
2018-09-03T08:44:23.095Z,28.60
2018-09-03T08:46:51.964Z,28.80
2018-09-03T08:49:20.818Z,28.60
2018-09-03T08:51:49.706Z,28.80
2018-09-03T08:54:18.596Z,29.20
2018-09-03T08:56:47.487Z,29.30
2018-09-03T08:59:16.262Z,29.50
2018-09-03T09:01:45.095Z,29.60
2018-09-03T09:04:13.916Z,30.10
2018-09-03T09:06:42.781Z,29.90
2018-09-03T09:09:11.650Z,30.00
2018-09-03T09:11:40.502Z,30.10
2018-09-03T09:14:09.332Z,29.80
2018-09-03T09:16:38.176Z,29.70
2018-09-03T09:19:07.057Z,29.50
2018-09-03T09:21:35.929Z,29.60
2018-09-03T09:24:04.848Z,29.40
2018-09-03T09:26:33.714Z,29.30
2018-09-03T09:29:02.602Z,29.40
2018-09-03T09:31:31.419Z,29.30
2018-09-03T09:34:00.231Z,29.20
2018-09-03T09:36:29.023Z,29.30
2018-09-03T09:38:57.932Z,29.40
2018-09-03T09:41:26.793Z,29.40
2018-09-03T09:43:55.605Z,29.50
2018-09-03T09:46:24.432Z,30.00
2018-09-03T09:48:53.280Z,30.20
2018-09-03T09:51:22.131Z,30.30
2018-09-03T09:53:50.956Z,30.30
2018-09-03T09:56:19.827Z,30.60
2018-09-03T09:58:48.615Z,30.50
2018-09-03T10:01:22.978Z,30.60
2018-09-03T10:03:51.790Z,30.90
2018-09-03T10:06:20.685Z,30.90
2018-09-03T10:08:49.536Z,31.00
2018-09-03T10:11:18.363Z,31.10
2018-09-03T10:13:47.232Z,31.10
2018-09-03T10:16:16.143Z,31.30
2018-09-03T10:18:44.936Z,31.40
2018-09-03T10:21:13.744Z,31.60
2018-09-03T10:23:42.580Z,31.60
2018-09-03T10:26:11.537Z,31.90
2018-09-03T10:28:40.380Z,32.20
2018-09-03T10:31:09.190Z,32.50
2018-09-03T10:33:38.219Z,32.50
2018-09-03T10:36:07.068Z,32.90
2018-09-03T10:38:36.049Z,32.90
2018-09-03T10:41:04.920Z,32.90
2018-09-03T10:43:33.808Z,33.10
2018-09-03T10:46:02.668Z,33.10
2018-09-03T10:48:31.461Z,33.10
2018-09-03T10:51:00.314Z,33.00
2018-09-03T10:53:29.176Z,33.10
2018-09-03T10:55:58.050Z,33.00
2018-09-03T10:58:26.901Z,33.60
2018-09-03T11:00:55.719Z,33.80
2018-09-03T11:03:24.568Z,34.20
2018-09-03T11:05:53.418Z,33.50
2018-09-03T11:08:22.289Z,34.00
2018-09-03T11:10:50.982Z,35.00
2018-09-03T11:13:19.847Z,35.70
2018-09-03T11:15:48.675Z,35.70
2018-09-03T11:18:17.561Z,36.00
2018-09-03T11:20:46.442Z,36.00
2018-09-03T11:23:15.276Z,36.60
2018-09-03T11:25:44.071Z,36.80
2018-09-03T11:28:12.917Z,36.80
2018-09-03T11:30:41.820Z,36.80
2018-09-03T11:33:10.742Z,36.70
2018-09-03T11:35:39.563Z,37.70
2018-09-03T11:38:08.408Z,37.80
2018-09-03T11:40:37.269Z,38.20
2018-09-03T11:43:06.303Z,39.70
2018-09-03T11:45:35.097Z,39.10
2018-09-03T11:48:03.924Z,38.90
2018-09-03T11:50:32.751Z,40.40
2018-09-03T11:53:01.575Z,40.00
2018-09-03T11:55:30.469Z,40.90
2018-09-03T11:57:59.277Z,40.80
2018-09-03T12:00:29.735Z,41.40
2018-09-03T12:02:59.111Z,43.90
2018-09-03T12:05:28.829Z,43.60
2018-09-03T12:07:57.683Z,45.50
2018-09-03T12:10:26.536Z,45.20
2018-09-03T12:12:55.437Z,46.20
2018-09-03T12:15:31.558Z,45.30
2018-09-03T12:18:00.433Z,45.50
2018-09-03T12:20:29.246Z,45.70
2018-09-03T12:22:58.106Z,46.50
2018-09-03T12:25:26.927Z,47.90
2018-09-03T12:27:58.364Z,48.30
2018-09-03T12:30:27.382Z,48.50
2018-09-03T12:32:56.253Z,48.70
2018-09-03T12:35:25.172Z,47.60
2018-09-03T12:37:54.031Z,49.90
2018-09-03T12:40:22.928Z,50.80
2018-09-03T12:42:51.836Z,49.90
2018-09-03T12:45:24.795Z,48.40
2018-09-03T12:47:53.653Z,50.10
2018-09-03T12:50:22.680Z,50.70
2018-09-03T12:52:51.491Z,51.20
2018-09-03T12:55:20.361Z,51.60
2018-09-03T12:57:49.219Z,51.80
2018-09-03T13:00:21.607Z,51.90
2018-09-03T13:02:50.896Z,52.80
2018-09-03T13:05:20.403Z,52.90
2018-09-03T13:07:49.661Z,54.00
2018-09-03T13:10:18.490Z,53.40
2018-09-03T13:12:47.462Z,53.40
2018-09-03T13:15:16.419Z,53.90
2018-09-03T13:17:45.243Z,54.30
2018-09-03T13:20:14.333Z,54.50
2018-09-03T13:22:44.667Z,53.80
2018-09-03T13:25:13.505Z,52.80
2018-09-03T13:27:43.882Z,52.30
2018-09-03T13:30:12.711Z,51.70
2018-09-03T13:32:41.606Z,52.30
2018-09-03T13:35:11.453Z,52.60
2018-09-03T13:37:40.316Z,53.40
2018-09-03T13:40:09.252Z,54.00
2018-09-03T13:42:39.789Z,54.10
2018-09-03T13:45:08.789Z,54.80
2018-09-03T13:47:37.628Z,54.70
2018-09-03T13:50:06.875Z,53.70
2018-09-03T13:52:35.820Z,54.10
2018-09-03T13:55:04.955Z,53.90
2018-09-03T13:57:34.524Z,52.80
2018-09-03T14:00:03.421Z,52.70
2018-09-03T14:02:32.543Z,54.20
2018-09-03T14:05:01.417Z,53.20
2018-09-03T14:07:30.268Z,53.30
2018-09-03T14:09:59.228Z,51.70
2018-09-03T14:12:28.007Z,52.80
2018-09-03T14:17:53.974Z,52.80
2018-09-03T14:23:19.711Z,52.80
2018-09-03T14:25:48.645Z,53.20
2018-09-03T14:28:17.598Z,53.10
2018-09-03T14:30:46.481Z,54.40
2018-09-03T14:33:15.375Z,54.30
2018-09-03T14:35:44.264Z,51.60
2018-09-03T14:38:13.110Z,53.70
2018-09-03T14:40:41.972Z,53.50
2018-09-03T14:43:10.890Z,53.70
2018-09-03T14:45:39.720Z,52.10
2018-09-03T14:48:08.581Z,51.30
2018-09-03T14:50:37.408Z,51.70
2018-09-03T14:53:06.207Z,51.20
2018-09-03T14:55:35.080Z,51.60
2018-09-03T14:58:03.924Z,51.10
2018-09-03T15:00:32.870Z,51.30
2018-09-03T15:03:01.700Z,49.90
2018-09-03T15:05:30.784Z,48.70
2018-09-03T15:07:59.623Z,48.20
2018-09-03T15:10:28.514Z,45.60
2018-09-03T15:12:57.313Z,45.60
2018-09-03T15:15:32.489Z,41.80
2018-09-03T15:18:01.333Z,42.20
2018-09-03T15:20:30.179Z,43.60
2018-09-03T15:22:59.147Z,45.20
2018-09-03T15:25:30.845Z,47.10
2018-09-03T15:27:59.696Z,48.10
2018-09-03T15:30:28.681Z,48.50
2018-09-03T15:32:57.512Z,48.50
2018-09-03T15:35:26.429Z,48.90
2018-09-03T15:37:55.264Z,49.60
2018-09-03T15:40:24.180Z,49.60
2018-09-03T15:42:53.194Z,49.20
2018-09-03T15:45:22.007Z,48.30
2018-09-03T15:47:50.897Z,45.20
2018-09-03T15:53:17.352Z,40.20
2018-09-03T15:55:46.259Z,39.30
2018-09-03T15:58:15.126Z,41.00
2018-09-03T16:00:44.026Z,42.50
2018-09-03T16:03:12.905Z,43.40
2018-09-03T16:05:41.716Z,44.20
2018-09-03T16:08:10.558Z,44.50
2018-09-03T16:10:39.356Z,44.90
2018-09-03T16:13:08.168Z,44.50
2018-09-03T16:15:37.050Z,44.50
2018-09-03T16:18:07.313Z,44.30
2018-09-03T16:20:36.193Z,43.70
2018-09-03T16:23:05.018Z,43.60
2018-09-03T16:25:33.859Z,43.60
2018-09-03T16:28:02.984Z,43.60
2018-09-03T16:30:31.963Z,43.40
2018-09-03T16:33:00.811Z,43.00
2018-09-03T16:35:29.621Z,43.30
2018-09-03T16:37:58.476Z,43.20
2018-09-03T16:40:27.327Z,43.00
2018-09-03T16:42:56.213Z,42.20
2018-09-03T16:45:25.063Z,41.20
2018-09-03T16:47:53.890Z,39.20
2018-09-03T16:50:22.739Z,37.10
2018-09-03T16:52:51.641Z,35.50
2018-09-03T16:55:20.732Z,34.20
2018-09-03T16:57:50.312Z,33.10
2018-09-03T17:00:19.122Z,32.20
2018-09-03T17:02:48.021Z,31.80
2018-09-03T17:05:19.713Z,31.30
2018-09-03T17:10:23.056Z,30.70
2018-09-03T17:12:53.520Z,30.40
2018-09-03T17:15:22.359Z,29.80
2018-09-03T17:17:51.261Z,29.50
2018-09-03T17:20:20.098Z,29.20
2018-09-03T17:22:48.932Z,28.90
2018-09-03T17:25:17.780Z,29.10
2018-09-03T17:27:46.705Z,28.60
2018-09-03T17:30:15.589Z,28.20
2018-09-03T17:32:46.395Z,28.00
2018-09-03T17:35:15.297Z,27.80
2018-09-03T17:37:44.163Z,27.80
2018-09-03T17:40:13.036Z,27.70
2018-09-03T17:42:41.926Z,27.70
2018-09-03T17:45:10.816Z,27.50
2018-09-03T17:47:40.287Z,26.90
2018-09-03T17:50:09.549Z,26.80
2018-09-03T17:52:38.444Z,26.70
2018-09-03T17:55:08.785Z,26.30
2018-09-03T17:57:37.635Z,26.10
2018-09-03T18:00:06.641Z,25.90
2018-09-03T18:02:35.454Z,25.80
2018-09-03T18:05:04.299Z,25.70
2018-09-03T18:07:33.155Z,25.30
2018-09-03T18:10:02.005Z,25.30
2018-09-03T18:12:30.877Z,25.20
2018-09-03T18:14:59.736Z,25.20
2018-09-03T18:17:28.597Z,25.00
2018-09-03T18:19:57.488Z,25.10
2018-09-03T18:22:26.335Z,25.00
2018-09-03T18:24:55.214Z,25.00
2018-09-03T18:27:24.035Z,24.60
2018-09-03T18:29:52.907Z,24.60
2018-09-03T18:32:21.761Z,24.90
2018-09-03T18:34:50.586Z,24.70
2018-09-03T18:37:19.476Z,24.60
2018-09-03T18:39:48.570Z,24.50
2018-09-03T18:42:17.439Z,24.60
2018-09-03T18:44:46.276Z,24.50
2018-09-03T18:47:15.251Z,24.50
2018-09-03T18:49:44.046Z,24.20
2018-09-03T18:52:12.899Z,24.00
2018-09-03T18:54:41.739Z,24.00
2018-09-03T18:57:10.673Z,24.10
2018-09-03T18:59:39.486Z,24.20
2018-09-03T19:02:08.332Z,24.10
2018-09-03T19:04:37.191Z,24.10
2018-09-03T19:07:06.039Z,23.80
2018-09-03T19:09:34.913Z,23.90
2018-09-03T19:12:03.731Z,23.70
2018-09-03T19:14:32.630Z,23.70
2018-09-03T19:17:01.445Z,23.80
2018-09-03T19:19:30.255Z,23.80
2018-09-03T19:21:59.097Z,23.60
2018-09-03T19:24:27.939Z,23.60
2018-09-03T19:26:56.743Z,23.60
2018-09-03T19:29:25.581Z,23.50
2018-09-03T19:31:54.397Z,23.50
2018-09-03T19:34:23.201Z,23.50
2018-09-03T19:36:52.153Z,23.50
2018-09-03T19:39:21.110Z,23.40
2018-09-03T19:41:50.020Z,23.30
2018-09-03T19:44:20.298Z,23.20
2018-09-03T19:46:49.285Z,23.30
2018-09-03T19:49:18.132Z,23.30
2018-09-03T19:51:46.979Z,23.20
2018-09-03T19:54:15.812Z,23.20
2018-09-03T19:56:44.683Z,23.00
2018-09-03T19:59:13.636Z,22.80
2018-09-03T20:01:42.561Z,23.10
2018-09-03T20:04:11.436Z,23.00
2018-09-03T20:06:40.296Z,22.90
2018-09-03T20:09:09.321Z,22.70
2018-09-03T20:11:38.569Z,22.90
2018-09-03T20:14:07.781Z,22.90
2018-09-03T20:16:36.951Z,22.90
2018-09-03T20:19:05.948Z,22.80
2018-09-03T20:21:34.822Z,22.50
2018-09-03T20:24:03.638Z,22.70
2018-09-03T20:26:32.479Z,22.60
2018-09-03T20:29:01.317Z,22.40
2018-09-03T20:31:30.151Z,22.60
2018-09-03T20:33:59.025Z,22.50
2018-09-03T20:36:27.936Z,22.40
2018-09-03T20:38:56.739Z,22.10
2018-09-03T20:41:25.607Z,22.20
2018-09-03T20:43:54.436Z,22.20
2018-09-03T20:46:23.371Z,22.00
2018-09-03T20:48:52.152Z,22.10
2018-09-03T20:51:20.992Z,22.00
2018-09-03T20:53:49.858Z,22.10
2018-09-03T20:56:18.759Z,22.00
2018-09-03T20:58:47.608Z,22.10
2018-09-03T21:01:16.463Z,21.80
2018-09-03T21:03:45.293Z,21.80
2018-09-03T21:06:14.137Z,22.00
2018-09-03T21:08:42.961Z,21.80
2018-09-03T21:11:11.815Z,21.60
2018-09-03T21:13:40.623Z,21.80
2018-09-03T21:16:09.492Z,21.70
2018-09-03T21:18:38.526Z,21.60
2018-09-03T21:21:07.385Z,21.60
2018-09-03T21:23:36.194Z,21.70
2018-09-03T21:26:05.136Z,21.60
2018-09-03T21:28:34.008Z,21.70
2018-09-03T21:31:02.872Z,21.60
2018-09-03T21:33:31.747Z,21.70
2018-09-03T21:36:00.579Z,21.30
2018-09-03T21:38:29.476Z,21.30
2018-09-03T21:40:58.360Z,21.50
2018-09-03T21:43:27.291Z,21.40
2018-09-03T21:45:56.139Z,21.30
2018-09-03T21:48:25.025Z,21.40
2018-09-03T21:50:54.015Z,21.40
2018-09-03T21:53:22.886Z,21.40
2018-09-03T21:55:51.739Z,21.30
2018-09-03T21:58:20.603Z,21.40
2018-09-03T22:00:49.501Z,21.10
2018-09-03T22:03:18.347Z,21.20
2018-09-03T22:05:47.259Z,20.90
2018-09-03T22:08:16.074Z,21.00
2018-09-03T22:10:44.975Z,21.20
2018-09-03T22:13:13.819Z,21.00
2018-09-03T22:15:42.728Z,20.90
2018-09-03T22:18:11.915Z,20.90
2018-09-03T22:20:40.719Z,21.00
2018-09-03T22:23:09.596Z,20.90
2018-09-03T22:25:38.460Z,21.00
2018-09-03T22:28:07.299Z,20.90
2018-09-03T22:30:36.155Z,21.00
2018-09-03T22:33:04.955Z,20.80
2018-09-03T22:35:33.800Z,20.70
2018-09-03T22:38:02.602Z,20.70
2018-09-03T22:40:31.429Z,20.80
2018-09-03T22:43:00.294Z,20.90
2018-09-03T22:45:29.143Z,20.60
2018-09-03T22:47:58.004Z,20.50
2018-09-03T22:50:26.859Z,20.60
2018-09-03T22:52:55.655Z,20.50
2018-09-03T22:55:24.463Z,20.70
2018-09-03T22:57:53.377Z,20.60
2018-09-03T23:00:22.223Z,20.50
2018-09-03T23:02:51.067Z,20.70
2018-09-03T23:05:19.895Z,20.40
2018-09-03T23:07:48.699Z,20.50
2018-09-03T23:10:17.514Z,20.30
2018-09-03T23:12:46.345Z,20.50
2018-09-03T23:15:15.233Z,20.30
2018-09-03T23:17:44.075Z,20.40
2018-09-03T23:20:12.920Z,20.40
2018-09-03T23:22:41.775Z,20.40
2018-09-03T23:25:10.629Z,20.40
2018-09-03T23:27:39.492Z,20.40
2018-09-03T23:30:08.314Z,20.20
2018-09-03T23:32:37.166Z,20.40
2018-09-03T23:35:06.182Z,20.30
2018-09-03T23:37:35.070Z,20.10
2018-09-03T23:40:03.923Z,20.30
2018-09-03T23:42:32.756Z,20.10
2018-09-03T23:45:01.632Z,20.00
2018-09-03T23:47:30.489Z,20.30
2018-09-03T23:49:59.352Z,20.20
2018-09-03T23:52:28.162Z,20.00
2018-09-03T23:54:56.997Z,20.20
2018-09-03T23:57:25.851Z,20.10
2018-09-03T23:59:54.676Z,20.10
